Pagina principale
METAR-TAF:

METAR-TAF

Aeroporti :

Mardin, Turchia

latitudine: 37-13-58N, longitudine: 40-38-26E, altezza: 527 m

METAR: mancante

Ora: 04:18 (01:18 UTC)

Previsione

Il bollettino è stato emesso 11 ore e 38 minuti fa, alle 13:40 UTC
Previsione valida dal 30 alle 15 UTC al 30 alle 24 UTC
Vento 12 kt da sud-ovest
Visibilità 10 km o più
nessuna nube inferiore a 1500 m e nessun cumulonembo
Evoluzione graduale
dal 30 alle 16 UTC al 30 alle 19 UTC
Vento 9 kt da nord/nord-ovest

TAF: LTCR 301340Z 3015/3024 23012KT CAVOK BECMG 3016/3019 33009KT

Osservazioni e previsioni meteorologiche di più di 4000 aeroporti (messaggi METAR e TAF).

Le stazioni disponibili sono rappresentate dai dischi gialli e rossi sulla carta.

Puntare il mouse per vedere il nome della stazione.

Clicca sopra per visualizzare le osservazioni e previsioni meteorologiche.

Per cambiare la mappa : fare clic sui pulsanti verdi con una croce nera per ingrandire, il pulsante verde con un trattino per diminuire, o sulla freccia verde per le mappe adiacenti.


METAR-TAF: